Time;durP1;ratioP1;P1;durP2;ratioP2;P2;SDS_P1;SDS_P2;PMS_P1;PMS_P2;Temp;Humidity;BMP_temperature;BMP_pressure;BME280_temperature;BME280_humidity;BME280_pressure;Samples;Min_cycle;Max_cycle;Signal;HPM_P1;HPM_P2
2023/05/07 00:01:49;;;;;;;18.77;13.80;;;;;;;-145.18;100.00;46654.53;4952912;28;20513;-71
2023/05/07 00:04:14;;;;;;;19.80;13.93;;;;;;;-145.18;100.00;46654.53;4952804;28;20051;-71
2023/05/07 00:06:40;;;;;;;18.47;12.47;;;;;;;-145.18;100.00;46650.63;4953063;29;20121;-71
2023/05/07 00:09:06;;;;;;;18.73;12.03;;;;;;;-145.18;100.00;46650.63;4953098;28;20477;-71
2023/05/07 00:11:32;;;;;;;16.53;12.23;;;;;;;-145.18;100.00;46652.59;4953154;28;20476;-71
2023/05/07 00:13:57;;;;;;;17.10;12.83;;;;;;;-145.18;100.00;46654.53;4952736;29;20031;-71
2023/05/07 00:16:22;;;;;;;17.60;11.63;;;;;;;-145.18;100.00;46648.69;4953387;28;20046;-71
2023/05/07 00:18:48;;;;;;;20.97;12.17;;;;;;;-145.18;100.00;46646.72;4953106;28;20129;-71
2023/05/07 00:21:13;;;;;;;14.60;11.77;;;;;;;-145.18;100.00;46648.69;4952622;28;20035;-71
2023/05/07 00:23:39;;;;;;;14.57;12.10;;;;;;;-145.18;100.00;46652.59;4953192;29;20774;-71
2023/05/07 00:26:04;;;;;;;16.73;11.63;;;;;;;-145.18;100.00;46650.63;4952865;29;20111;-71
2023/05/07 00:28:30;;;;;;;13.83;11.93;;;;;;;-145.18;100.00;46650.63;4952446;28;20062;-71
2023/05/07 00:30:55;;;;;;;15.73;11.87;;;;;;;-145.18;100.00;46652.59;4952644;29;20098;-71
2023/05/07 00:33:22;;;;;;;15.53;11.33;;;;;;;-145.18;100.00;46654.53;4952624;29;20035;-71
2023/05/07 00:35:48;;;;;;;16.73;11.57;;;;;;;-145.18;100.00;46648.69;4952798;29;20103;-71
2023/05/07 00:38:13;;;;;;;13.23;11.10;;;;;;;-145.18;100.00;46654.53;4952325;29;20031;-71
2023/05/07 00:40:39;;;;;;;13.30;10.90;;;;;;;-145.18;100.00;46652.59;4952632;28;20632;-71
2023/05/07 00:43:04;;;;;;;14.33;10.77;;;;;;;-145.18;100.00;46652.59;4952386;28;20024;-71
2023/05/07 00:45:30;;;;;;;10.97;9.67;;;;;;;-145.18;100.00;46648.69;4935609;29;20035;-71
2023/05/07 00:47:57;;;;;;;11.60;9.83;;;;;;;-145.18;100.00;46648.69;4952148;28;20560;-72
2023/05/07 00:50:23;;;;;;;12.60;9.53;;;;;;;-145.18;100.00;46648.69;4952622;29;20035;-71
2023/05/07 00:52:49;;;;;;;12.17;9.77;;;;;;;-145.18;100.00;46646.72;4952482;29;20046;-72
2023/05/07 00:55:14;;;;;;;15.53;9.33;;;;;;;-145.18;100.00;46650.63;4952248;29;20023;-72
2023/05/07 00:57:41;;;;;;;15.87;9.30;;;;;;;-145.18;100.00;46644.78;4952390;28;20039;-72
2023/05/07 01:00:09;;;;;;;11.57;9.27;;;;;;;-145.18;100.00;46650.63;4952353;28;20019;-72
2023/05/07 01:02:35;;;;;;;12.73;9.17;;;;;;;-145.18;100.00;46654.53;4952096;28;20098;-71
2023/05/07 01:05:03;;;;;;;9.90;8.37;;;;;;;-145.18;100.00;46652.59;4951672;28;20043;-71
2023/05/07 01:07:30;;;;;;;11.60;8.57;;;;;;;-145.18;100.00;46652.59;4951860;29;20043;-71
2023/05/07 01:09:56;;;;;;;11.47;9.27;;;;;;;-145.18;100.00;46650.63;4952116;29;20089;-72
2023/05/07 01:12:22;;;;;;;14.47;8.87;;;;;;;-145.18;100.00;46650.63;4952147;29;20496;-72
2023/05/07 01:14:49;;;;;;;10.23;8.67;;;;;;;-145.18;100.00;46648.69;4952397;28;20035;-72
2023/05/07 01:17:15;;;;;;;11.93;9.00;;;;;;;-145.18;100.00;46658.44;4951720;29;20814;-72
2023/05/07 01:19:41;;;;;;;12.47;8.73;;;;;;;-145.18;100.00;46652.59;4952322;28;20094;-72
2023/05/07 01:22:14;;;;;;;9.47;7.83;;;;;;;-145.18;100.00;46650.63;4951775;29;20114;-71
2023/05/07 01:24:40;;;;;;;12.60;8.30;;;;;;;-145.18;100.00;46652.59;4951840;29;20043;-71
2023/05/07 01:27:05;;;;;;;14.37;9.43;;;;;;;-145.18;100.00;46652.59;4951403;29;20035;-71
2023/05/07 01:29:31;;;;;;;11.53;8.70;;;;;;;-145.18;100.00;46656.50;4934840;29;20122;-71
2023/05/07 01:32:01;;;;;;;9.30;8.40;;;;;;;-145.18;100.00;46654.53;4951749;29;20035;-72
2023/05/07 01:34:30;;;;;;;10.17;8.33;;;;;;;-145.18;100.00;46654.53;4952106;28;20042;-72
2023/05/07 01:36:57;;;;;;;10.40;8.73;;;;;;;-145.18;100.00;46652.59;4951708;29;20030;-72
2023/05/07 01:39:27;;;;;;;10.27;8.57;;;;;;;-145.18;100.00;46654.53;4951681;29;20027;-71
2023/05/07 01:41:56;;;;;;;10.30;8.77;;;;;;;-145.18;100.00;46654.53;4954369;28;20039;-71
2023/05/07 01:44:22;;;;;;;10.20;8.60;;;;;;;-145.18;100.00;46656.50;4971307;28;20046;-72
2023/05/07 01:46:48;;;;;;;9.20;8.03;;;;;;;-145.18;100.00;46652.59;4971088;28;20178;-72
2023/05/07 01:49:15;;;;;;;10.17;8.63;;;;;;;-145.18;100.00;46654.53;4970830;28;20141;-72
2023/05/07 01:51:41;;;;;;;14.63;8.13;;;;;;;-145.18;100.00;46650.63;4961279;28;20050;-73
2023/05/07 01:54:08;;;;;;;9.63;8.20;;;;;;;-145.18;100.00;46654.53;4951793;29;20424;-73
2023/05/07 01:56:33;;;;;;;9.67;8.00;;;;;;;-145.18;100.00;46656.50;4951548;29;20753;-72
2023/05/07 01:58:59;;;;;;;9.80;8.57;;;;;;;-145.18;100.00;46652.59;4951608;29;20027;-73
2023/05/07 02:03:59;;;;;;;12.70;8.57;;;;;;;-145.18;100.00;46658.44;4742682;23;20059;-72
2023/05/07 02:06:25;;;;;;;13.00;8.23;;;;;;;-145.18;100.00;46656.50;4951534;29;20036;-71
2023/05/07 02:08:50;;;;;;;12.93;8.87;;;;;;;-145.18;100.00;46656.50;4951213;29;20035;-72
2023/05/07 02:11:15;;;;;;;9.77;8.43;;;;;;;-145.18;100.00;46654.53;4951872;29;20171;-71
2023/05/07 02:13:41;;;;;;;10.20;8.47;;;;;;;-145.18;100.00;46654.53;4935828;29;20059;-71
2023/05/07 02:16:07;;;;;;;14.90;10.00;;;;;;;-145.18;100.00;46648.69;4951741;29;20131;-72
2023/05/07 02:18:32;;;;;;;15.77;8.67;;;;;;;-145.18;100.00;46652.59;4951855;29;20039;-71
2023/05/07 02:20:57;;;;;;;8.83;7.60;;;;;;;-145.18;100.00;46654.53;4951887;29;20512;-72
2023/05/07 02:23:23;;;;;;;13.63;8.70;;;;;;;-145.18;100.00;46654.53;4937868;29;20028;-71
2023/05/07 02:25:48;;;;;;;12.30;9.57;;;;;;;-145.18;100.00;46646.72;4932912;29;20115;-71
2023/05/07 02:28:14;;;;;;;13.90;10.67;;;;;;;-145.18;100.00;46648.69;4932303;29;20099;-72
2023/05/07 02:30:40;;;;;;;13.00;8.67;;;;;;;-145.18;100.00;46652.59;4932755;29;20043;-72
2023/05/07 02:33:06;;;;;;;10.40;8.60;;;;;;;-145.18;100.00;46652.59;4943315;29;20126;-72
2023/05/07 02:35:31;;;;;;;12.37;9.17;;;;;;;-145.18;100.00;46650.63;4951539;29;20639;-71
2023/05/07 02:37:57;;;;;;;10.93;9.10;;;;;;;-145.18;100.00;46650.63;4951383;28;20043;-72
2023/05/07 02:40:22;;;;;;;11.93;9.07;;;;;;;-145.18;100.00;46654.53;4955066;29;20042;-72
2023/05/07 02:42:47;;;;;;;14.43;9.50;;;;;;;-145.18;100.00;46652.59;4944519;29;20039;-71
2023/05/07 02:45:14;;;;;;;13.97;9.33;;;;;;;-145.18;100.00;46652.59;4935946;29;20074;-71
2023/05/07 02:47:39;;;;;;;13.20;9.40;;;;;;;-145.18;100.00;46652.59;4935729;29;20087;-71
2023/05/07 02:50:06;;;;;;;13.23;9.17;;;;;;;-145.18;100.00;46646.72;4954152;29;20047;-71
2023/05/07 02:52:31;;;;;;;19.83;8.77;;;;;;;-145.18;100.00;46658.44;4954557;29;20050;-71
2023/05/07 02:54:56;;;;;;;14.73;9.83;;;;;;;-145.18;100.00;46652.59;4955001;29;20031;-71
2023/05/07 02:57:22;;;;;;;10.97;9.37;;;;;;;-145.18;100.00;46652.59;4954552;29;20138;-71
2023/05/07 02:59:47;;;;;;;11.77;9.00;;;;;;;-145.18;100.00;46652.59;4955029;29;20194;-71
2023/05/07 03:02:12;;;;;;;14.80;9.73;;;;;;;-145.18;100.00;46652.59;4936769;29;20062;-71
2023/05/07 03:04:40;;;;;;;18.53;9.93;;;;;;;-145.18;100.00;46648.69;4955048;29;20031;-72
2023/05/07 03:07:06;;;;;;;11.23;9.17;;;;;;;-145.18;100.00;46648.69;4954130;29;20042;-72
2023/05/07 03:09:31;;;;;;;14.17;9.47;;;;;;;-145.18;100.00;46648.69;4954781;29;20039;-71
2023/05/07 03:11:57;;;;;;;13.43;9.60;;;;;;;-145.18;100.00;46648.69;4954548;29;20070;-71
2023/05/07 03:14:22;;;;;;;16.13;10.73;;;;;;;-145.18;100.00;46648.69;4954463;29;20046;-71
2023/05/07 03:16:49;;;;;;;14.43;9.37;;;;;;;-145.18;100.00;46652.59;4954539;29;20118;-71
2023/05/07 03:19:14;;;;;;;14.57;10.30;;;;;;;-145.18;100.00;46650.63;4954189;29;20051;-71
2023/05/07 03:21:39;;;;;;;12.20;10.00;;;;;;;-145.18;100.00;46650.63;4954414;29;20032;-71
2023/05/07 03:24:05;;;;;;;12.70;10.27;;;;;;;-145.18;100.00;46650.63;4954138;29;20415;-71
2023/05/07 03:26:30;;;;;;;15.73;10.50;;;;;;;-145.18;100.00;46652.59;4954265;29;20039;-70
2023/05/07 03:28:56;;;;;;;15.13;11.13;;;;;;;-145.18;100.00;46648.69;4953708;29;20039;-71
2023/05/07 03:31:21;;;;;;;18.70;11.43;;;;;;;-145.18;100.00;46648.69;4954345;29;20044;-71
2023/05/07 03:33:57;;;;;;;15.13;11.10;;;;;;;-145.18;100.00;46648.69;4954103;29;20031;-71
2023/05/07 03:36:23;;;;;;;;;;;;;;;-145.18;100.00;46648.69;4954332;29;20022;-71
2023/05/07 03:38:49;;;;;;;15.95;11.00;;;;;;;-145.18;100.00;46646.72;4954048;29;19946;-71
2023/05/07 03:41:15;;;;;;;15.80;11.30;;;;;;;-145.18;100.00;46654.53;4953978;29;20039;-71
2023/05/07 03:43:40;;;;;;;15.27;11.93;;;;;;;-145.18;100.00;46650.63;4954038;29;20035;-71
2023/05/07 03:46:06;;;;;;;15.33;12.07;;;;;;;-145.18;100.00;46648.69;4953608;29;20476;-71
2023/05/07 03:48:31;;;;;;;17.60;12.20;;;;;;;-145.18;100.00;46652.59;4953943;29;20035;-71
2023/05/07 03:50:59;;;;;;;17.43;12.13;;;;;;;-145.18;100.00;46650.63;4953718;28;20037;-71
2023/05/07 03:53:25;;;;;;;15.93;12.13;;;;;;;-145.18;100.00;46642.81;4953868;29;20503;-71
2023/05/07 03:55:50;;;;;;;15.20;11.43;;;;;;;-145.18;100.00;46644.78;4953717;29;20043;-72
2023/05/07 03:58:16;;;;;;;16.23;11.70;;;;;;;-145.18;100.00;46650.63;4953425;29;20043;-71
2023/05/07 04:00:42;;;;;;;16.87;11.80;;;;;;;-145.18;100.00;46648.69;4953436;29;20118;-71
2023/05/07 04:03:07;;;;;;;15.60;12.33;;;;;;;-145.18;100.00;46650.63;4952219;29;20114;-71
2023/05/07 04:05:33;;;;;;;17.67;13.27;;;;;;;-145.18;100.00;46646.72;4940092;29;20436;-71
2023/05/07 04:07:59;;;;;;;16.87;11.97;;;;;;;-145.18;100.00;46648.69;4952389;29;20035;-71
2023/05/07 04:10:25;;;;;;;16.43;12.67;;;;;;;-145.18;100.00;46646.72;4942482;29;20063;-71
2023/05/07 04:12:50;;;;;;;17.07;11.67;;;;;;;-145.18;100.00;46652.59;4940468;29;20117;-71
2023/05/07 04:15:16;;;;;;;20.70;13.23;;;;;;;-145.18;100.00;46650.63;4945883;29;20045;-71
2023/05/07 04:17:41;;;;;;;14.27;11.67;;;;;;;-145.18;100.00;46648.69;4948628;29;20038;-71
2023/05/07 04:20:10;;;;;;;14.77;10.80;;;;;;;-145.18;100.00;46648.69;4952909;29;20039;-71
2023/05/07 04:22:36;;;;;;;12.93;10.43;;;;;;;-145.18;100.00;46646.72;4952885;29;20042;-71
2023/05/07 04:25:02;;;;;;;15.90;11.70;;;;;;;-145.18;100.00;46648.69;4949023;29;20027;-71
2023/05/07 04:27:27;;;;;;;17.80;12.33;;;;;;;-145.18;100.00;46652.59;4948724;29;20035;-71
2023/05/07 04:29:55;;;;;;;20.70;13.47;;;;;;;-145.18;100.00;46648.69;4949676;29;20035;-71
2023/05/07 04:32:21;;;;;;;18.33;13.63;;;;;;;-145.18;100.00;46652.59;4952819;29;20491;-71
2023/05/07 04:34:46;;;;;;;20.07;14.67;;;;;;;-145.18;100.00;46652.59;4903592;29;20447;-71
2023/05/07 04:37:12;;;;;;;21.53;16.33;;;;;;;-145.18;100.00;46648.69;4951935;29;20075;-71
2023/05/07 04:39:37;;;;;;;24.80;15.80;;;;;;;-145.18;100.00;46648.69;4952377;29;20042;-71
2023/05/07 04:42:03;;;;;;;21.13;15.70;;;;;;;-145.18;100.00;46652.59;4952523;29;20122;-71
2023/05/07 04:44:30;;;;;;;24.13;17.10;;;;;;;-145.18;100.00;46656.50;4952703;29;20070;-71
2023/05/07 04:46:56;;;;;;;20.03;15.50;;;;;;;-145.18;100.00;46652.59;4952320;29;20439;-71
2023/05/07 04:49:21;;;;;;;24.73;16.77;;;;;;;-145.18;100.00;46650.63;4952542;29;20126;-71
2023/05/07 04:51:47;;;;;;;23.17;17.43;;;;;;;-145.18;100.00;46656.50;4951857;29;20062;-71
2023/05/07 04:54:12;;;;;;;24.87;18.23;;;;;;;-145.18;100.00;46650.63;4952112;29;20035;-71
2023/05/07 04:56:37;;;;;;;26.07;17.23;;;;;;;-145.18;100.00;46656.50;4945747;29;20036;-71
2023/05/07 04:59:03;;;;;;;24.07;16.53;;;;;;;-145.18;100.00;46654.53;4933213;29;20039;-71
2023/05/07 05:01:28;;;;;;;30.10;18.47;;;;;;;-145.18;100.00;46654.53;4933145;29;20043;-71
2023/05/07 05:03:53;;;;;;;23.83;17.10;;;;;;;-145.18;100.00;46652.59;4933051;29;20523;-71
2023/05/07 05:06:19;;;;;;;27.20;18.60;;;;;;;-145.18;100.00;46654.53;4939708;29;20480;-71
2023/05/07 05:08:44;;;;;;;24.30;16.03;;;;;;;-145.18;100.00;46656.50;4952478;29;20031;-71
2023/05/07 05:11:10;;;;;;;24.43;17.07;;;;;;;-145.18;100.00;46652.59;4952467;29;20582;-71
2023/05/07 05:13:35;;;;;;;29.57;18.93;;;;;;;-145.18;100.00;46654.53;4952270;29;20535;-71
2023/05/07 05:16:00;;;;;;;25.97;17.20;;;;;;;-145.18;100.00;46658.44;4951994;29;20027;-70
2023/05/07 05:18:26;;;;;;;24.20;17.13;;;;;;;-145.18;100.00;46652.59;4952062;29;20043;-71
2023/05/07 05:20:51;;;;;;;27.23;17.97;;;;;;;-145.18;100.00;46654.53;4951054;28;20504;-71
2023/05/07 05:23:17;;;;;;;27.47;18.50;;;;;;;-145.18;100.00;46648.69;4961070;28;20442;-70
2023/05/07 05:25:42;;;;;;;23.50;17.67;;;;;;;-145.18;100.00;46650.63;4951807;29;20035;-71
2023/05/07 05:28:07;;;;;;;24.27;17.90;;;;;;;-145.18;100.00;46650.63;4952109;29;20064;-71
2023/05/07 05:30:33;;;;;;;27.87;18.57;;;;;;;-145.18;100.00;46654.53;4952353;29;20126;-71
2023/05/07 05:32:58;;;;;;;27.20;18.20;;;;;;;-145.18;100.00;46650.63;4952058;29;20496;-71
2023/05/07 05:35:23;;;;;;;27.67;18.80;;;;;;;-145.18;100.00;46652.59;4952050;29;20039;-71
2023/05/07 05:37:49;;;;;;;29.87;18.73;;;;;;;-145.18;100.00;46652.59;4951968;29;20039;-71
2023/05/07 05:40:14;;;;;;;24.67;18.47;;;;;;;-145.18;100.00;46648.69;4952213;29;20485;-71
2023/05/07 05:42:40;;;;;;;30.60;19.03;;;;;;;-145.18;100.00;46656.50;4952182;29;20027;-71
2023/05/07 05:45:06;;;;;;;26.20;19.03;;;;;;;-145.18;100.00;46650.63;4952135;29;20489;-71
2023/05/07 05:47:31;;;;;;;29.70;19.60;;;;;;;-145.18;100.00;46654.53;4952009;29;20043;-71
2023/05/07 05:49:56;;;;;;;30.50;19.23;;;;;;;-145.18;100.00;46656.50;4951638;29;20023;-71
2023/05/07 05:52:23;;;;;;;27.83;19.90;;;;;;;-145.18;100.00;46652.59;4952271;29;20027;-71
2023/05/07 05:54:49;;;;;;;26.70;20.03;;;;;;;-145.18;100.00;46652.59;4948694;29;20097;-71
2023/05/07 05:57:14;;;;;;;26.70;20.93;;;;;;;-145.18;100.00;46652.59;4936990;29;20497;-71
2023/05/07 05:59:40;;;;;;;29.77;19.43;;;;;;;-145.18;100.00;46654.53;4944381;28;20058;-71
2023/05/07 06:02:06;;;;;;;29.50;20.30;;;;;;;-145.18;100.00;46658.44;4953210;28;20039;-71
2023/05/07 06:04:31;;;;;;;31.57;20.00;;;;;;;-145.18;100.00;46656.50;4929078;28;20619;-71
2023/05/07 06:06:57;;;;;;;28.77;20.30;;;;;;;-145.18;100.00;46654.53;4956568;28;20027;-71
2023/05/07 06:09:22;;;;;;;27.13;20.50;;;;;;;-145.18;100.00;46654.53;4951732;29;20105;-72
2023/05/07 06:11:47;;;;;;;26.37;19.87;;;;;;;-145.18;100.00;46654.53;4951491;29;20042;-73
2023/05/07 06:14:13;;;;;;;25.90;20.77;;;;;;;-145.18;100.00;46650.63;4948411;28;20035;-73
2023/05/07 06:16:38;;;;;;;27.37;19.97;;;;;;;-145.18;100.00;46656.50;4955792;29;20110;-73
2023/05/07 06:19:03;;;;;;;28.70;21.67;;;;;;;-145.18;100.00;46656.50;4943866;29;20532;-72
2023/05/07 06:21:30;;;;;;;35.90;21.50;;;;;;;-145.18;100.00;46656.50;4936498;29;20036;-72
2023/05/07 06:23:55;;;;;;;28.63;21.17;;;;;;;-145.18;100.00;46652.59;4935895;29;20118;-72
2023/05/07 06:26:21;;;;;;;29.23;21.87;;;;;;;-145.18;100.00;46658.44;4954726;28;20071;-72
2023/05/07 06:28:46;;;;;;;32.63;22.70;;;;;;;-145.18;100.00;46656.50;4954813;29;20031;-72
2023/05/07 06:31:16;;;;;;;33.67;22.77;;;;;;;-145.18;100.00;46656.50;4954772;29;20070;-72
2023/05/07 06:33:44;;;;;;;28.67;22.23;;;;;;;-145.18;100.00;46656.50;4955072;29;20115;-72
2023/05/07 06:36:10;;;;;;;32.07;23.87;;;;;;;-145.18;100.00;46646.72;4954200;29;20019;-72
2023/05/07 06:38:35;;;;;;;35.37;25.37;;;;;;;-145.18;100.00;46650.63;4955146;29;20035;-72
2023/05/07 06:41:01;;;;;;;33.63;24.43;;;;;;;-145.18;100.00;46652.59;4943773;29;20037;-72
2023/05/07 06:43:26;;;;;;;35.13;24.77;;;;;;;-145.18;100.00;46654.53;4953015;28;20027;-72
2023/05/07 06:45:51;;;;;;;38.37;24.70;;;;;;;-145.18;100.00;46648.69;4953025;29;20031;-72
2023/05/07 06:48:17;;;;;;;34.70;24.93;;;;;;;-145.18;100.00;46650.63;4953015;29;20031;-72
2023/05/07 06:50:42;;;;;;;31.10;23.20;;;;;;;-145.18;100.00;46652.59;4954469;29;20552;-72
2023/05/07 06:53:08;;;;;;;30.27;22.93;;;;;;;-145.18;100.00;46650.63;4944025;29;20753;-72
2023/05/07 06:55:33;;;;;;;36.27;24.83;;;;;;;-145.18;100.00;46654.53;4954266;29;20086;-72
2023/05/07 06:58:00;;;;;;;31.63;23.67;;;;;;;-145.18;100.00;46652.59;4954347;29;20114;-72
2023/05/07 07:00:26;;;;;;;31.67;22.97;;;;;;;-145.18;100.00;46648.69;4945442;29;20082;-71
2023/05/07 07:02:52;;;;;;;34.50;24.63;;;;;;;-145.18;100.00;46650.63;4935081;29;20459;-71
2023/05/07 07:05:18;;;;;;;32.80;24.60;;;;;;;-145.18;100.00;46654.53;4943083;29;20035;-71
2023/05/07 07:07:43;;;;;;;31.53;23.83;;;;;;;-145.18;100.00;46654.53;4953170;29;20484;-71
2023/05/07 07:10:09;;;;;;;33.73;24.70;;;;;;;-145.18;100.00;46652.59;4952601;29;20048;-71
2023/05/07 07:12:34;;;;;;;34.43;25.10;;;;;;;-145.18;100.00;46654.53;4953412;29;20041;-71
2023/05/07 07:15:00;;;;;;;36.80;25.07;;;;;;;-145.18;100.00;46652.59;4953015;29;20738;-71
2023/05/07 07:17:25;;;;;;;33.90;24.20;;;;;;;-145.18;100.00;46648.69;4939624;29;20766;-71
2023/05/07 07:19:50;;;;;;;35.90;24.43;;;;;;;-145.18;100.00;46652.59;4934210;29;20032;-71
2023/05/07 07:22:16;;;;;;;32.43;23.77;;;;;;;-145.18;100.00;46652.59;4951722;29;20043;-71
2023/05/07 07:24:41;;;;;;;31.33;22.07;;;;;;;-145.18;100.00;46652.59;4953698;28;20112;-71
2023/05/07 07:27:07;;;;;;;30.10;22.83;;;;;;;-145.18;100.00;46654.53;4953789;29;20520;-71
2023/05/07 07:29:32;;;;;;;32.03;22.90;;;;;;;-145.18;100.00;46656.50;4938303;29;20134;-71
2023/05/07 07:31:58;;;;;;;29.73;22.87;;;;;;;-145.18;100.00;46654.53;4931592;29;20120;-71
2023/05/07 07:34:23;;;;;;;32.47;23.47;;;;;;;-145.18;100.00;46658.44;4953709;29;20042;-71
2023/05/07 07:36:48;;;;;;;28.90;22.97;;;;;;;-145.18;100.00;46658.44;4942705;29;20048;-71
2023/05/07 07:39:14;;;;;;;29.97;23.77;;;;;;;-145.18;100.00;46658.44;4934407;29;20046;-71
2023/05/07 07:41:39;;;;;;;31.47;21.83;;;;;;;-145.18;100.00;46662.34;4951858;29;20126;-71
2023/05/07 07:44:07;;;;;;;28.13;22.33;;;;;;;-145.18;100.00;46660.41;4953593;29;20035;-71
2023/05/07 07:46:33;;;;;;;33.90;22.60;;;;;;;-145.18;100.00;46664.31;4953734;29;20134;-70
2023/05/07 07:48:59;;;;;;;29.20;22.27;;;;;;;-145.18;100.00;46662.34;4953450;29;20503;-70
2023/05/07 07:51:25;;;;;;;28.83;21.80;;;;;;;-145.18;100.00;46664.31;4953734;29;20039;-71
2023/05/07 07:53:50;;;;;;;26.17;21.37;;;;;;;-145.18;100.00;46660.41;4936061;29;20130;-70
2023/05/07 07:56:15;;;;;;;27.93;22.07;;;;;;;-145.18;100.00;46666.25;4941233;29;20043;-71
2023/05/07 07:58:41;;;;;;;28.03;20.17;;;;;;;-145.18;100.00;46660.41;4950178;29;20043;-71
2023/05/07 08:01:07;;;;;;;28.03;22.13;;;;;;;-145.18;100.00;46668.22;4946906;29;20075;-71
2023/05/07 08:03:32;;;;;;;32.33;20.97;;;;;;;-145.18;100.00;46672.13;4947152;29;20063;-70
2023/05/07 08:05:58;;;;;;;29.87;20.83;;;;;;;-145.18;100.00;46672.13;4905231;29;20043;-71
2023/05/07 08:08:23;;;;;;;27.77;20.77;;;;;;;-145.18;100.00;46670.16;4953258;29;20027;-71
2023/05/07 08:10:50;;;;;;;29.33;19.43;;;;;;;-145.18;100.00;46674.06;4952402;29;20046;-71
2023/05/07 08:13:16;;;;;;;26.33;20.57;;;;;;;-145.18;100.00;46670.16;4952613;29;20046;-71
2023/05/07 08:15:41;;;;;;;23.93;19.13;;;;;;;-145.18;100.00;46679.94;4947379;29;20043;-71
2023/05/07 08:18:06;;;;;;;23.70;19.07;;;;;;;-145.18;100.00;46676.03;4952451;29;20066;-71
2023/05/07 08:20:33;;;;;;;26.60;19.03;;;;;;;-145.18;100.00;46677.97;4952443;29;20047;-71
2023/05/07 08:22:58;;;;;;;24.70;19.40;;;;;;;-145.18;100.00;46676.03;4939145;29;20039;-71
2023/05/07 08:25:24;;;;;;;28.43;20.13;;;;;;;-145.18;100.00;46676.03;4952843;29;20500;-71
2023/05/07 08:27:49;;;;;;;22.67;17.40;;;;;;;-145.18;100.00;46674.06;4952767;29;20045;-71
2023/05/07 08:30:15;;;;;;;24.63;19.20;;;;;;;-145.18;100.00;46677.97;4934587;29;20048;-71
2023/05/07 08:32:40;;;;;;;24.53;18.67;;;;;;;-145.18;100.00;46677.97;4950006;29;20051;-71
2023/05/07 08:35:06;;;;;;;25.03;18.37;;;;;;;-145.18;100.00;46676.03;4950937;29;20075;-71
2023/05/07 08:37:31;;;;;;;26.23;19.93;;;;;;;-145.18;100.00;46683.84;4952006;28;20035;-71
2023/05/07 08:39:56;;;;;;;26.40;18.50;;;;;;;-145.18;100.00;46685.78;4952040;29;20054;-72
2023/05/07 08:42:24;;;;;;;25.20;19.00;;;;;;;-145.18;100.00;46683.84;4947069;29;20046;-71
2023/05/07 08:44:52;;;;;;;24.93;18.67;;;;;;;-145.18;100.00;46687.75;4952500;29;20046;-71
2023/05/07 08:47:19;;;;;;;25.80;19.57;;;;;;;-145.18;100.00;46683.84;4952053;29;20074;-71
2023/05/07 08:49:44;;;;;;;22.80;18.37;;;;;;;-145.18;100.00;46687.75;4936853;29;20047;-72
2023/05/07 08:52:12;;;;;;;23.77;18.77;;;;;;;-145.18;100.00;46687.75;4923546;29;20044;-72
2023/05/07 08:54:38;;;;;;;23.90;19.00;;;;;;;-145.18;100.00;46681.88;4948435;29;20074;-71
2023/05/07 08:57:03;;;;;;;24.20;18.77;;;;;;;-145.18;100.00;46687.75;4952224;28;20046;-72
2023/05/07 08:59:29;;;;;;;21.07;17.77;;;;;;;-145.18;100.00;46689.69;4952129;29;20043;-72
2023/05/07 09:01:55;;;;;;;21.77;17.83;;;;;;;-145.18;100.00;46683.84;4952136;28;20050;-71
2023/05/07 09:04:20;;;;;;;21.57;17.90;;;;;;;-145.18;100.00;46674.06;4949508;29;20056;-71
2023/05/07 09:06:47;;;;;;;23.57;16.67;;;;;;;-145.18;100.00;46666.25;4952163;29;20033;-72
2023/05/07 09:09:17;;;;;;;22.97;17.90;;;;;;;-145.18;100.00;46670.16;4943299;29;20043;-71
2023/05/07 09:11:42;;;;;;;21.00;15.73;;;;;;;-145.18;100.00;46668.22;4946186;29;20031;-72
2023/05/07 09:14:08;;;;;;;21.00;16.63;;;;;;;-145.18;100.00;46660.41;4942020;29;20039;-72
2023/05/07 09:16:33;;;;;;;21.83;17.13;;;;;;;-145.18;100.00;46658.44;4943642;29;20051;-71
2023/05/07 09:19:02;;;;;;;21.77;17.20;;;;;;;-145.18;100.00;46658.44;4949557;29;20046;-71
2023/05/07 09:21:27;;;;;;;20.03;15.33;;;;;;;-145.18;100.00;46654.53;4946899;29;20421;-72
2023/05/07 09:23:55;;;;;;;21.70;15.77;;;;;;;-145.18;100.00;46656.50;4946794;29;20035;-72
2023/05/07 09:26:24;;;;;;;20.27;16.07;;;;;;;-145.18;100.00;46658.44;4942249;29;20035;-72
2023/05/07 09:28:50;;;;;;;21.37;15.00;;;;;;;-145.18;100.00;46635.00;4941933;29;20031;-72
2023/05/07 09:31:16;;;;;;;18.73;14.93;;;;;;;-145.18;100.00;46576.41;4951196;29;20376;-72
2023/05/07 09:33:41;;;;;;;21.17;15.37;;;;;;;-145.18;100.00;46568.59;4950578;29;20030;-72
2023/05/07 09:36:09;;;;;;;21.23;15.47;;;;;;;-145.18;100.00;46554.91;4953163;28;20058;-72
2023/05/07 09:38:36;;;;;;;17.83;14.47;;;;;;;-145.18;100.00;46562.72;4952053;29;20027;-72
2023/05/07 09:41:07;;;;;;;23.03;15.30;;;;;;;-145.18;100.00;46558.81;4929395;29;20584;-72
2023/05/07 09:43:34;;;;;;;19.77;14.53;;;;;;;-145.18;100.00;46568.59;4934597;29;20072;-72
2023/05/07 09:46:11;;;;;;;18.97;14.27;;;;;;;-145.18;100.00;46570.53;4951385;29;20031;-72
2023/05/07 09:48:41;;;;;;;18.83;13.63;;;;;;;-145.18;100.00;46580.31;4941673;29;20102;-72
2023/05/07 09:51:15;;;;;;;19.77;14.20;;;;;;;-145.18;100.00;46568.59;4955728;29;20457;-72
2023/05/07 09:53:41;;;;;;;17.23;13.70;;;;;;;-145.18;100.00;46582.25;4947781;29;20098;-72
2023/05/07 09:56:07;;;;;;;15.57;12.80;;;;;;;-145.18;100.00;46560.78;4954130;29;20031;-72
2023/05/07 09:58:36;;;;;;;15.73;13.60;;;;;;;-145.18;100.00;46568.59;4936979;29;20078;-72
2023/05/07 10:01:02;;;;;;;16.60;13.00;;;;;;;-145.18;100.00;46576.41;4955436;28;20035;-72
2023/05/07 10:03:31;;;;;;;18.33;13.50;;;;;;;-145.18;100.00;46578.34;4955344;29;20055;-72
2023/05/07 10:05:58;;;;;;;17.00;12.23;;;;;;;-145.18;100.00;46570.53;4941786;29;20089;-71
2023/05/07 10:08:24;;;;;;;16.07;12.00;;;;;;;-145.18;100.00;46574.44;4952679;29;20028;-72
2023/05/07 10:10:50;;;;;;;14.50;12.73;;;;;;;-145.18;100.00;46570.53;4938157;29;20065;-72
2023/05/07 10:13:17;;;;;;;14.53;11.77;;;;;;;-145.18;100.00;46590.06;4955331;29;20480;-72
2023/05/07 10:15:42;;;;;;;14.27;12.37;;;;;;;-145.18;100.00;46586.16;4955279;29;20031;-72
2023/05/07 10:18:08;;;;;;;15.63;12.97;;;;;;;-145.18;100.00;46566.63;4941955;29;20457;-72
2023/05/07 10:20:36;;;;;;;16.40;13.10;;;;;;;-145.18;100.00;46595.94;4935949;29;20455;-72
2023/05/07 10:23:04;;;;;;;17.63;12.97;;;;;;;-145.18;100.00;46580.31;4949238;29;20039;-72
2023/05/07 10:25:31;;;;;;;14.60;11.27;;;;;;;-145.18;100.00;46560.78;4943627;29;20078;-72
2023/05/07 10:28:06;;;;;;;14.43;11.50;;;;;;;-145.18;100.00;46578.34;4948322;29;20035;-72
2023/05/07 10:30:34;;;;;;;15.33;12.97;;;;;;;-145.18;100.00;46574.44;4941519;29;20042;-72
2023/05/07 10:33:05;;;;;;;16.13;12.50;;;;;;;-145.18;100.00;46580.31;4948095;29;20035;-72
2023/05/07 10:35:38;;;;;;;16.57;11.80;;;;;;;-145.18;100.00;46574.44;4954869;29;20031;-72
2023/05/07 10:38:04;;;;;;;17.17;10.77;;;;;;;-145.18;100.00;46586.16;4954874;29;20023;-72
2023/05/07 10:40:30;;;;;;;12.30;9.83;;;;;;;-145.18;100.00;46580.31;4955071;29;20093;-72
2023/05/07 10:43:04;;;;;;;13.00;9.57;;;;;;;-145.18;100.00;46592.03;4938225;29;20040;-72
2023/05/07 10:45:30;;;;;;;14.40;9.40;;;;;;;-145.18;100.00;46617.41;4935794;29;20035;-72
2023/05/07 10:48:15;;;;;;;10.97;8.83;;;;;;;-145.18;100.00;46613.50;4935431;29;20739;-72
2023/05/07 10:50:47;;;;;;;10.07;8.97;;;;;;;-145.18;100.00;46648.69;4935388;29;20496;-72
2023/05/07 10:53:18;;;;;;;11.97;9.97;;;;;;;-145.18;100.00;46609.59;4939497;29;20212;-72
2023/05/07 10:55:52;;;;;;;12.30;9.73;;;;;;;-145.18;100.00;46599.84;4954812;29;20399;-72